Time;durP1;ratioP1;P1;durP2;ratioP2;P2;SDS_P1;SDS_P2;PMS_P1;PMS_P2;Temp;Humidity;BMP_temperature;BMP_pressure;BME280_temperature;BME280_humidity;BME280_pressure;Samples;Min_cycle;Max_cycle;Signal;HPM_P1;HPM_P2
2022/06/20 00:00:47;;;;;;;4.72;2.65;;;;;;;;;;4857808;29;20038;-63
2022/06/20 00:03:35;;;;;;;4.80;2.70;;;;;;;;;;4858765;29;20042;-63
2022/06/20 00:06:00;;;;;;;6.35;2.80;;;;;;;;;;4841681;29;20053;-63
2022/06/20 00:08:26;;;;;;;4.70;2.60;;;;;;;;;;4848249;29;20033;-62
2022/06/20 00:10:52;;;;;;;3.95;2.72;;;;;;;;;;4860102;29;20033;-63
2022/06/20 00:13:31;;;;;;;8.50;2.80;;;;;;;;;;4856111;29;20033;-62
2022/06/20 00:15:57;;;;;;;4.80;2.47;;;;;;;;;;4843586;29;20115;-64
2022/06/20 00:18:23;;;;;;;7.80;2.90;;;;;;;;;;4857263;29;20412;-63
2022/06/20 00:20:48;;;;;;;5.30;2.60;;;;;;;;;;4856757;29;20033;-64
2022/06/20 00:23:14;;;;;;;7.15;3.00;;;;;;;;;;4857059;29;20086;-64
2022/06/20 00:25:40;;;;;;;5.47;2.63;;;;;;;;;;4857182;29;20102;-64
2022/06/20 00:28:07;;;;;;;6.00;2.75;;;;;;;;;;4857699;29;20053;-65
2022/06/20 00:30:33;;;;;;;6.85;3.10;;;;;;;;;;4858236;29;20037;-65
2022/06/20 00:32:58;;;;;;;5.32;2.80;;;;;;;;;;4857333;29;20044;-64
2022/06/20 00:35:24;;;;;;;6.10;2.58;;;;;;;;;;4857528;29;20498;-64
2022/06/20 00:37:50;;;;;;;7.70;2.97;;;;;;;;;;4859135;29;20112;-65
2022/06/20 00:40:46;;;;;;;6.15;2.70;;;;;;;;;;4857923;29;20033;-64
2022/06/20 00:43:17;;;;;;;6.75;3.03;;;;;;;;;;4838277;29;20057;-64
2022/06/20 00:45:45;;;;;;;5.40;2.80;;;;;;;;;;4850594;29;20097;-65
2022/06/20 00:48:29;;;;;;;5.63;2.78;;;;;;;;;;4857715;29;20066;-64
2022/06/20 00:51:01;;;;;;;6.68;2.88;;;;;;;;;;4853095;29;20462;-65
2022/06/20 00:53:32;;;;;;;7.03;3.08;;;;;;;;;;4840327;29;20067;-64
2022/06/20 00:56:09;;;;;;;3.95;2.55;;;;;;;;;;4847778;29;20040;-65
2022/06/20 00:58:47;;;;;;;6.15;2.80;;;;;;;;;;4856732;29;20061;-64
2022/06/20 01:01:14;;;;;;;4.82;2.88;;;;;;;;;;4858404;29;20464;-65
2022/06/20 01:03:51;;;;;;;7.53;3.20;;;;;;;;;;4855969;29;20046;-64
2022/06/20 01:06:28;;;;;;;6.90;3.30;;;;;;;;;;4859441;29;20038;-65
2022/06/20 01:09:02;;;;;;;8.80;3.55;;;;;;;;;;4857859;29;20049;-65
2022/06/20 01:11:34;;;;;;;9.40;3.72;;;;;;;;;;4855608;29;20038;-63
2022/06/20 01:14:19;;;;;;;8.02;3.45;;;;;;;;;;4856736;29;20041;-64
2022/06/20 01:16:44;;;;;;;5.70;3.30;;;;;;;;;;4855664;29;20817;-64
2022/06/20 01:19:10;;;;;;;7.18;3.45;;;;;;;;;;4856281;29;20064;-65
2022/06/20 01:21:35;;;;;;;6.05;3.50;;;;;;;;;;4858358;29;20467;-64
2022/06/20 01:24:20;;;;;;;7.47;3.65;;;;;;;;;;4857169;29;20494;-64
2022/06/20 01:26:52;;;;;;;6.80;3.75;;;;;;;;;;4858157;29;20056;-64
2022/06/20 01:29:18;;;;;;;6.90;3.78;;;;;;;;;;4854203;29;20033;-65
2022/06/20 01:31:54;;;;;;;7.35;3.92;;;;;;;;;;4855925;29;20145;-63
2022/06/20 01:34:20;;;;;;;5.70;3.92;;;;;;;;;;4859038;29;20033;-64
2022/06/20 01:39:37;;;;;;;;;;;;;;;;;;4857790;29;20053;-63
2022/06/20 01:42:19;;;;;;;8.40;4.32;;;;;;;;;;4856077;29;19923;-64
2022/06/20 01:44:48;;;;;;;9.07;4.93;;;;;;;;;;4856550;29;20044;-63
2022/06/20 01:47:14;;;;;;;8.52;4.95;;;;;;;;;;4855312;29;20076;-64
2022/06/20 01:49:43;;;;;;;11.45;5.47;;;;;;;;;;4853700;29;20069;-66
2022/06/20 01:52:16;;;;;;;11.07;5.18;;;;;;;;;;4858171;29;20447;-65
2022/06/20 01:54:51;;;;;;;11.90;5.38;;;;;;;;;;4856515;29;20068;-65
2022/06/20 01:57:18;;;;;;;11.65;5.75;;;;;;;;;;4843173;29;20033;-65
2022/06/20 01:59:56;;;;;;;10.52;5.95;;;;;;;;;;4857825;29;20086;-65
2022/06/20 02:02:22;;;;;;;10.50;5.80;;;;;;;;;;4859989;29;20420;-65
2022/06/20 02:04:47;;;;;;;10.55;5.20;;;;;;;;;;4857931;29;20542;-64
2022/06/20 02:07:13;;;;;;;11.35;5.60;;;;;;;;;;4859791;29;20113;-64
2022/06/20 02:09:40;;;;;;;12.43;5.68;;;;;;;;;;4860951;29;20113;-64
2022/06/20 02:12:07;;;;;;;7.30;5.25;;;;;;;;;;4861666;29;20080;-64
2022/06/20 02:14:58;;;;;;;9.85;5.45;;;;;;;;;;4859329;29;20045;-64
2022/06/20 02:17:31;;;;;;;10.57;5.25;;;;;;;;;;4855603;29;20050;-63
2022/06/20 02:20:02;;;;;;;9.57;5.60;;;;;;;;;;4858321;29;20034;-64
2022/06/20 02:22:30;;;;;;;9.35;4.80;;;;;;;;;;4860854;29;20041;-63
2022/06/20 02:25:02;;;;;;;15.55;5.22;;;;;;;;;;4859082;29;20037;-64
2022/06/20 02:27:32;;;;;;;10.00;5.30;;;;;;;;;;4860881;29;20042;-63
2022/06/20 02:30:01;;;;;;;13.38;5.40;;;;;;;;;;4858804;29;20507;-65
2022/06/20 02:32:30;;;;;;;9.73;5.40;;;;;;;;;;4859604;29;20451;-65
2022/06/20 02:34:56;;;;;;;13.57;5.40;;;;;;;;;;4859125;29;20048;-65
2022/06/20 02:37:24;;;;;;;12.27;5.55;;;;;;;;;;4843162;29;20037;-65
2022/06/20 02:39:54;;;;;;;9.82;5.25;;;;;;;;;;4858315;29;20030;-64
2022/06/20 02:42:35;;;;;;;12.55;5.25;;;;;;;;;;4861444;29;20037;-65
2022/06/20 02:45:05;;;;;;;12.00;5.25;;;;;;;;;;4858582;29;20136;-64
2022/06/20 02:47:32;;;;;;;10.98;5.47;;;;;;;;;;4860193;29;20045;-63
2022/06/20 02:50:00;;;;;;;10.23;6.03;;;;;;;;;;4858609;29;20522;-64
2022/06/20 02:52:32;;;;;;;10.95;5.30;;;;;;;;;;4861090;29;20041;-65
2022/06/20 02:55:00;;;;;;;13.32;5.57;;;;;;;;;;4859657;29;20060;-64
2022/06/20 02:57:34;;;;;;;10.80;4.68;;;;;;;;;;4859385;29;20057;-64
2022/06/20 03:00:00;;;;;;;8.52;4.45;;;;;;;;;;4857168;29;20169;-65
2022/06/20 03:02:29;;;;;;;15.50;4.57;;;;;;;;;;4860077;29;20053;-65
2022/06/20 03:04:55;;;;;;;12.00;4.38;;;;;;;;;;4856243;29;20070;-64
2022/06/20 03:07:32;;;;;;;10.32;4.18;;;;;;;;;;4858777;29;20364;-64
2022/06/20 03:10:09;;;;;;;12.75;4.10;;;;;;;;;;4859782;29;20045;-64
2022/06/20 03:12:34;;;;;;;9.10;3.95;;;;;;;;;;4858001;29;20041;-65
2022/06/20 03:15:00;;;;;;;11.43;4.05;;;;;;;;;;4860871;29;20037;-67
2022/06/20 03:17:26;;;;;;;12.60;4.03;;;;;;;;;;4857045;29;20053;-66
2022/06/20 03:19:59;;;;;;;12.82;4.10;;;;;;;;;;4857412;29;20037;-67
2022/06/20 03:22:33;;;;;;;8.50;3.60;;;;;;;;;;4859190;29;20048;-66
2022/06/20 03:24:59;;;;;;;10.32;3.70;;;;;;;;;;4859047;29;20034;-66
2022/06/20 03:27:30;;;;;;;9.70;3.78;;;;;;;;;;4856963;29;20069;-67
2022/06/20 03:29:59;;;;;;;;;;;;;;;;;;4860398;29;20041;-64
2022/06/20 03:32:25;;;;;;;8.35;3.30;;;;;;;;;;4858841;29;19916;-66
2022/06/20 03:34:52;;;;;;;8.48;3.40;;;;;;;;;;4859618;29;20048;-66
2022/06/20 03:37:18;;;;;;;13.25;3.70;;;;;;;;;;4857526;29;20033;-67
2022/06/20 03:39:45;;;;;;;10.88;3.58;;;;;;;;;;4859064;29;20064;-66
2022/06/20 03:42:11;;;;;;;9.05;3.60;;;;;;;;;;4858343;29;20041;-66
2022/06/20 03:44:44;;;;;;;9.23;3.75;;;;;;;;;;4859399;29;20129;-66
2022/06/20 03:47:17;;;;;;;8.27;3.50;;;;;;;;;;4858372;29;20038;-67
2022/06/20 03:49:57;;;;;;;9.50;3.70;;;;;;;;;;4859548;29;20033;-67
2022/06/20 03:52:27;;;;;;;12.98;3.90;;;;;;;;;;4859651;29;20052;-66
2022/06/20 03:55:08;;;;;;;12.43;3.90;;;;;;;;;;4859411;29;20105;-65
2022/06/20 03:57:43;;;;;;;;;;;;;;;;;;4857594;29;20409;-64
2022/06/20 04:00:18;;;;;;;10.65;3.58;;;;;;;;;;4860054;29;19916;-67
2022/06/20 04:02:53;;;;;;;11.88;3.50;;;;;;;;;;4857649;29;20096;-67
2022/06/20 04:05:28;;;;;;;11.98;3.60;;;;;;;;;;4858186;29;20150;-67
2022/06/20 04:07:57;;;;;;;11.10;3.63;;;;;;;;;;4855049;29;20057;-66
2022/06/20 04:13:41;;;;;;;9.40;3.60;;;;;;;;;;4859989;29;20080;-67
2022/06/20 04:16:13;;;;;;;13.63;4.03;;;;;;;;;;4857232;29;20040;-67
2022/06/20 04:18:44;;;;;;;9.93;3.30;;;;;;;;;;4837279;29;20093;-66
2022/06/20 04:21:19;;;;;;;11.20;3.03;;;;;;;;;;4859900;29;20033;-66
2022/06/20 04:23:50;;;;;;;8.90;3.38;;;;;;;;;;4856643;29;20044;-65
2022/06/20 04:26:30;;;;;;;8.45;3.15;;;;;;;;;;4858772;29;20538;-65
2022/06/20 04:29:10;;;;;;;7.47;3.30;;;;;;;;;;4856901;29;20494;-65
2022/06/20 04:31:49;;;;;;;9.15;3.10;;;;;;;;;;4859391;29;20149;-64
2022/06/20 04:34:20;;;;;;;11.00;3.28;;;;;;;;;;4858586;29;20040;-66
2022/06/20 04:37:08;;;;;;;8.30;3.05;;;;;;;;;;4858656;29;20103;-65
2022/06/20 04:39:58;;;;;;;10.73;2.65;;;;;;;;;;4857571;29;20059;-65
2022/06/20 04:42:36;;;;;;;6.70;2.72;;;;;;;;;;4859094;29;20041;-64
2022/06/20 04:45:18;;;;;;;8.93;2.60;;;;;;;;;;4849551;29;20510;-65
2022/06/20 04:47:52;;;;;;;12.98;2.63;;;;;;;;;;4849645;29;20494;-64
2022/06/20 04:50:22;;;;;;;7.97;2.50;;;;;;;;;;4858920;29;20033;-65
2022/06/20 04:52:50;;;;;;;8.15;2.38;;;;;;;;;;4856910;29;20045;-65
2022/06/20 04:55:21;;;;;;;6.10;2.38;;;;;;;;;;4859179;29;20079;-65
2022/06/20 04:57:47;;;;;;;9.32;2.67;;;;;;;;;;4856758;29;20033;-65
2022/06/20 05:00:22;;;;;;;11.57;2.75;;;;;;;;;;4859651;29;20045;-66
2022/06/20 05:02:51;;;;;;;9.98;3.08;;;;;;;;;;4856347;29;20451;-65
2022/06/20 05:05:19;;;;;;;9.60;2.88;;;;;;;;;;4855947;29;20076;-66
2022/06/20 05:07:46;;;;;;;12.77;3.05;;;;;;;;;;4857124;29;20038;-66
2022/06/20 05:10:35;;;;;;;8.35;2.90;;;;;;;;;;4858614;29;20045;-65
2022/06/20 05:13:08;;;;;;;7.70;3.05;;;;;;;;;;4857760;29;20053;-65
2022/06/20 05:15:46;;;;;;;8.13;2.92;;;;;;;;;;4859473;29;20093;-66
2022/06/20 05:18:42;;;;;;;11.35;3.22;;;;;;;;;;4858446;29;20088;-65
2022/06/20 05:21:21;;;;;;;7.85;3.10;;;;;;;;;;4858431;29;20467;-64
2022/06/20 05:23:53;;;;;;;14.77;3.38;;;;;;;;;;4855885;29;20038;-59
2022/06/20 05:26:24;;;;;;;10.63;3.70;;;;;;;;;;4851385;29;20038;-61
2022/06/20 05:28:51;;;;;;;;;;;;;;;;;;4861594;29;20045;-60
2022/06/20 05:31:30;;;;;;;10.40;3.13;;;;;;;;;;4857922;29;19916;-60
2022/06/20 05:34:02;;;;;;;13.57;3.47;;;;;;;;;;4858300;29;20057;-60
2022/06/20 05:36:36;;;;;;;10.10;3.53;;;;;;;;;;4859446;29;20467;-60
2022/06/20 05:39:10;;;;;;;9.13;3.25;;;;;;;;;;4861510;29;20390;-64
2022/06/20 05:41:36;;;;;;;10.02;3.28;;;;;;;;;;4861655;29;20038;-59
2022/06/20 05:44:04;;;;;;;11.63;3.25;;;;;;;;;;4861702;29;20034;-61
2022/06/20 05:46:43;;;;;;;9.68;3.40;;;;;;;;;;4860531;29;20037;-60
2022/06/20 05:49:16;;;;;;;9.13;3.45;;;;;;;;;;4862440;29;20033;-60
2022/06/20 05:51:44;;;;;;;12.18;3.53;;;;;;;;;;4861081;29;20389;-60
2022/06/20 05:54:17;;;;;;;10.15;3.45;;;;;;;;;;4862611;29;20038;-61
2022/06/20 05:56:50;;;;;;;7.90;3.40;;;;;;;;;;4859816;29;20475;-60
2022/06/20 05:59:27;;;;;;;8.68;3.08;;;;;;;;;;4860597;29;20037;-63
2022/06/20 06:02:03;;;;;;;10.15;3.03;;;;;;;;;;4858261;29;20042;-60
2022/06/20 06:04:38;;;;;;;7.88;3.00;;;;;;;;;;4859568;29;20044;-63
2022/06/20 06:07:12;;;;;;;12.20;3.75;;;;;;;;;;4859665;29;20044;-59
2022/06/20 06:09:59;;;;;;;13.32;3.05;;;;;;;;;;4861115;29;20077;-60
2022/06/20 06:12:34;;;;;;;8.93;3.28;;;;;;;;;;4861788;29;20417;-60
2022/06/20 06:15:23;;;;;;;11.48;3.15;;;;;;;;;;4860369;29;20085;-60
2022/06/20 06:17:57;;;;;;;11.10;3.00;;;;;;;;;;4836378;29;20133;-59
2022/06/20 06:20:26;;;;;;;13.73;3.17;;;;;;;;;;4848828;29;20034;-60
2022/06/20 06:22:56;;;;;;;10.27;2.67;;;;;;;;;;4857912;29;20033;-60
2022/06/20 06:25:24;;;;;;;8.93;2.73;;;;;;;;;;4860615;29;20487;-60
2022/06/20 06:27:53;;;;;;;7.85;2.50;;;;;;;;;;4860094;29;20033;-60
2022/06/20 06:30:42;;;;;;;7.50;2.80;;;;;;;;;;4865593;29;20463;-61
2022/06/20 06:33:32;;;;;;;9.02;2.88;;;;;;;;;;4861030;29;20041;-59
2022/06/20 06:35:57;;;;;;;12.63;2.78;;;;;;;;;;4855843;29;20467;-59
2022/06/20 06:38:35;;;;;;;10.07;2.83;;;;;;;;;;4861212;29;20037;-59
2022/06/20 06:41:04;;;;;;;7.18;2.30;;;;;;;;;;4856929;29;20120;-59
2022/06/20 06:43:38;;;;;;;7.22;2.38;;;;;;;;;;4859813;29;20472;-67
2022/06/20 06:46:10;;;;;;;8.00;2.33;;;;;;;;;;4860297;29;20041;-65
2022/06/20 06:48:51;;;;;;;8.38;2.38;;;;;;;;;;4857108;29;20048;-65
2022/06/20 06:51:33;;;;;;;9.20;2.20;;;;;;;;;;4859229;29;20399;-65
2022/06/20 06:54:28;;;;;;;8.43;2.60;;;;;;;;;;4858917;29;20116;-66
2022/06/20 06:57:01;;;;;;;12.77;2.58;;;;;;;;;;4859028;29;20055;-64
2022/06/20 06:59:40;;;;;;;8.57;3.00;;;;;;;;;;4861023;29;20496;-65
2022/06/20 07:02:14;;;;;;;7.70;2.83;;;;;;;;;;4859267;29;20431;-64
2022/06/20 07:04:53;;;;;;;6.53;2.28;;;;;;;;;;4859844;29;20136;-64
2022/06/20 07:07:23;;;;;;;9.80;2.35;;;;;;;;;;4858558;29;20120;-65
2022/06/20 07:09:51;;;;;;;8.25;2.30;;;;;;;;;;4859736;29;20034;-66
2022/06/20 07:12:31;;;;;;;6.55;2.17;;;;;;;;;;4858634;29;20451;-66
2022/06/20 07:15:06;;;;;;;7.38;1.92;;;;;;;;;;4856882;29;20038;-68
2022/06/20 07:17:54;;;;;;;6.47;2.08;;;;;;;;;;4859302;29;20458;-68
2022/06/20 07:20:24;;;;;;;8.18;2.42;;;;;;;;;;4856126;29;20479;-67
2022/06/20 07:22:50;;;;;;;7.78;2.10;;;;;;;;;;4857572;29;20493;-66
2022/06/20 07:25:27;;;;;;;8.13;2.38;;;;;;;;;;4862051;29;20041;-66
2022/06/20 07:28:04;;;;;;;5.88;2.17;;;;;;;;;;4857889;29;20033;-65
2022/06/20 07:30:37;;;;;;;7.65;2.30;;;;;;;;;;4842473;29;20117;-63
2022/06/20 07:33:13;;;;;;;9.63;2.40;;;;;;;;;;4854919;29;20040;-65
2022/06/20 07:35:45;;;;;;;6.45;2.28;;;;;;;;;;4859233;29;20056;-63
2022/06/20 07:38:17;;;;;;;7.35;3.08;;;;;;;;;;4860349;29;20534;-64
2022/06/20 07:40:52;;;;;;;7.75;2.20;;;;;;;;;;4859033;29;20038;-63
2022/06/20 07:43:21;;;;;;;7.82;2.50;;;;;;;;;;4841867;29;20056;-65
2022/06/20 07:45:50;;;;;;;9.10;2.55;;;;;;;;;;4858478;29;20045;-63
2022/06/20 07:48:19;;;;;;;8.80;2.67;;;;;;;;;;4857821;29;20089;-66
2022/06/20 07:50:51;;;;;;;7.07;2.45;;;;;;;;;;4857893;29;20399;-62
2022/06/20 07:53:25;;;;;;;7.70;2.15;;;;;;;;;;4859293;29;20471;-65
2022/06/20 07:55:59;;;;;;;7.28;2.47;;;;;;;;;;4856921;29;20053;-65
2022/06/20 07:58:37;;;;;;;6.50;2.72;;;;;;;;;;4857323;29;20045;-63
2022/06/20 08:01:11;;;;;;;8.13;2.53;;;;;;;;;;4858626;29;20088;-65
2022/06/20 08:03:47;;;;;;;6.78;2.40;;;;;;;;;;4857510;29;20539;-66
2022/06/20 08:06:37;;;;;;;6.25;2.30;;;;;;;;;;4873344;29;20033;-66
2022/06/20 08:09:26;;;;;;;5.70;2.03;;;;;;;;;;4856832;29;20047;-66
2022/06/20 08:11:57;;;;;;;6.45;2.45;;;;;;;;;;4859117;29;20033;-66
2022/06/20 08:14:35;;;;;;;8.00;2.40;;;;;;;;;;4859300;29;20057;-65
2022/06/20 08:17:04;;;;;;;7.88;2.47;;;;;;;;;;4857752;29;20174;-66
2022/06/20 08:19:31;;;;;;;5.47;2.30;;;;;;;;;;4842523;29;20029;-64
2022/06/20 08:22:09;;;;;;;5.32;1.92;;;;;;;;;;4858205;29;20510;-67
2022/06/20 08:25:09;;;;;;;6.40;1.90;;;;;;;;;;4858583;29;20037;-66
2022/06/20 08:27:44;;;;;;;3.05;1.50;;;;;;;;;;4859334;29;20118;-66
2022/06/20 08:30:24;;;;;;;5.60;1.90;;;;;;;;;;4856472;29;20034;-66
2022/06/20 08:32:55;;;;;;;5.40;2.35;;;;;;;;;;4853619;29;20068;-65
2022/06/20 08:35:32;;;;;;;6.50;2.10;;;;;;;;;;4841110;29;20049;-64
2022/06/20 08:38:02;;;;;;;7.90;2.20;;;;;;;;;;4848624;29;20060;-62
2022/06/20 08:41:08;;;;;;;4.45;1.90;;;;;;;;;;4859032;29;20105;-64
2022/06/20 08:43:56;;;;;;;6.55;1.80;;;;;;;;;;4847066;29;20090;-62
2022/06/20 08:46:25;;;;;;;5.88;1.85;;;;;;;;;;4859226;29;20495;-63
2022/06/20 08:49:09;;;;;;;5.32;1.90;;;;;;;;;;4855832;29;20049;-63
2022/06/20 08:52:08;;;;;;;5.63;1.95;;;;;;;;;;4858280;29;20037;-62
2022/06/20 08:55:01;;;;;;;5.15;1.88;;;;;;;;;;4859151;29;20029;-64
2022/06/20 08:57:46;;;;;;;5.93;2.10;;;;;;;;;;4858093;29;20049;-63
2022/06/20 09:00:18;;;;;;;6.43;2.00;;;;;;;;;;4858072;29;20069;-65
2022/06/20 09:02:57;;;;;;;5.85;2.00;;;;;;;;;;4858684;29;20060;-65
2022/06/20 09:05:38;;;;;;;5.03;1.80;;;;;;;;;;4863974;29;20060;-65
2022/06/20 09:08:27;;;;;;;3.90;2.10;;;;;;;;;;4858302;29;20041;-65
2022/06/20 09:11:12;;;;;;;6.65;2.10;;;;;;;;;;4861464;29;20068;-65
2022/06/20 09:13:51;;;;;;;4.90;1.80;;;;;;;;;;4862393;29;20042;-64
2022/06/20 09:16:36;;;;;;;3.28;1.70;;;;;;;;;;4862160;29;20107;-62
2022/06/20 09:19:26;;;;;;;6.63;1.80;;;;;;;;;;4855559;29;20057;-60
2022/06/20 09:22:04;;;;;;;5.60;1.85;;;;;;;;;;4857202;29;20078;-63
2022/06/20 09:24:41;;;;;;;3.15;1.60;;;;;;;;;;4861518;29;20025;-61
2022/06/20 09:27:18;;;;;;;3.90;1.85;;;;;;;;;;4858278;29;20495;-63
2022/06/20 09:29:49;;;;;;;3.85;1.73;;;;;;;;;;4860454;29;20098;-63
2022/06/20 09:32:30;;;;;;;7.50;2.10;;;;;;;;;;4862514;29;20097;-63
2022/06/20 09:35:23;;;;;;;6.53;2.00;;;;;;;;;;4860873;29;20052;-61
2022/06/20 09:37:57;;;;;;;3.47;1.80;;;;;;;;;;4859333;29;20033;-62
2022/06/20 09:40:44;;;;;;;5.57;2.10;;;;;;;;;;4861409;29;20057;-62
2022/06/20 09:43:15;;;;;;;4.22;1.80;;;;;;;;;;4860830;29;20116;-62
2022/06/20 09:46:13;;;;;;;3.85;1.80;;;;;;;;;;4861853;29;20470;-63
2022/06/20 09:48:41;;;;;;;5.38;1.80;;;;;;;;;;4858071;29;20046;-61
2022/06/20 09:51:29;;;;;;;3.72;1.80;;;;;;;;;;4861073;29;20041;-64
2022/06/20 09:54:21;;;;;;;4.57;1.65;;;;;;;;;;4861466;29;20108;-62
2022/06/20 09:56:53;;;;;;;3.85;2.00;;;;;;;;;;4859286;29;20045;-62
2022/06/20 09:59:42;;;;;;;3.85;1.90;;;;;;;;;;4860887;29;20116;-62
2022/06/20 10:02:16;;;;;;;5.07;2.10;;;;;;;;;;4858907;29;20053;-54
2022/06/20 10:04:59;;;;;;;4.32;2.08;;;;;;;;;;4860023;29;20037;-60
2022/06/20 10:07:24;;;;;;;4.13;2.00;;;;;;;;;;4860648;29;20040;-57
2022/06/20 10:10:00;;;;;;;3.80;1.80;;;;;;;;;;4861152;29;20038;-58
2022/06/20 10:12:34;;;;;;;4.47;2.20;;;;;;;;;;4861229;29;20116;-53
2022/06/20 10:15:15;;;;;;;4.57;1.90;;;;;;;;;;4860281;29;20101;-57
2022/06/20 10:18:09;;;;;;;5.20;1.90;;;;;;;;;;4849979;29;20041;-59
2022/06/20 10:20:46;;;;;;;4.18;2.00;;;;;;;;;;4851277;29;20145;-58
2022/06/20 10:23:17;;;;;;;6.07;2.17;;;;;;;;;;4860961;29;20046;-58
2022/06/20 10:25:49;;;;;;;4.97;2.10;;;;;;;;;;4860903;29;20045;-59
2022/06/20 10:28:21;;;;;;;8.23;2.15;;;;;;;;;;4860775;29;20044;-57
2022/06/20 10:31:06;;;;;;;6.07;2.25;;;;;;;;;;4860614;29;20048;-58
2022/06/20 10:34:10;;;;;;;4.47;2.08;;;;;;;;;;4860597;29;20044;-59
2022/06/20 10:36:56;;;;;;;3.17;1.80;;;;;;;;;;4861496;29;20113;-59
2022/06/20 10:40:00;;;;;;;6.70;2.00;;;;;;;;;;4861351;29;20502;-59
2022/06/20 10:42:49;;;;;;;3.40;1.83;;;;;;;;;;4859815;29;20069;-59
2022/06/20 10:45:27;;;;;;;6.40;2.03;;;;;;;;;;4860666;29;20108;-59
2022/06/20 10:48:14;;;;;;;7.07;2.13;;;;;;;;;;4859057;29;20082;-57
2022/06/20 10:50:55;;;;;;;4.40;2.40;;;;;;;;;;4860495;29;20060;-59
2022/06/20 10:53:45;;;;;;;3.85;2.13;;;;;;;;;;4844906;29;20056;-58
2022/06/20 10:56:26;;;;;;;3.85;1.95;;;;;;;;;;4860904;29;20050;-59
2022/06/20 10:59:00;;;;;;;4.53;1.90;;;;;;;;;;4857617;29;20048;-60
2022/06/20 11:01:47;;;;;;;4.78;2.20;;;;;;;;;;4860356;29;20040;-59
2022/06/20 11:04:30;;;;;;;4.88;2.20;;;;;;;;;;4860646;29;20037;-59
2022/06/20 11:07:20;;;;;;;4.78;2.10;;;;;;;;;;4858496;29;20056;-59
2022/06/20 11:10:21;;;;;;;5.33;2.10;;;;;;;;;;4857967;29;20044;-59
2022/06/20 11:12:54;;;;;;;;;;;;;;;;;;4859690;29;20037;-60
2022/06/20 11:15:46;;;;;;;5.30;1.92;;;;;;;;;;4857351;29;19928;-59
2022/06/20 11:18:20;;;;;;;5.40;2.22;;;;;;;;;;4851570;29;20089;-58
2022/06/20 11:20:57;;;;;;;7.75;2.45;;;;;;;;;;4857364;29;20041;-59
2022/06/20 11:23:31;;;;;;;5.95;2.22;;;;;;;;;;4860521;29;20146;-59
2022/06/20 11:26:15;;;;;;;5.05;2.30;;;;;;;;;;4859353;29;20105;-63
2022/06/20 11:29:11;;;;;;;4.72;2.05;;;;;;;;;;4859115;29;20493;-63
2022/06/20 11:31:58;;;;;;;7.07;2.30;;;;;;;;;;4849652;29;20064;-63
2022/06/20 11:34:56;;;;;;;3.88;2.10;;;;;;;;;;4859023;29;20034;-62
2022/06/20 11:37:40;;;;;;;5.95;2.20;;;;;;;;;;4860483;29;20045;-63
2022/06/20 11:40:27;;;;;;;6.72;2.58;;;;;;;;;;4857999;29;20041;-62
2022/06/20 11:43:23;;;;;;;5.07;2.15;;;;;;;;;;4859440;29;20448;-63
2022/06/20 11:46:12;;;;;;;7.80;2.10;;;;;;;;;;4858007;29;20140;-62
2022/06/20 11:48:46;;;;;;;6.38;2.20;;;;;;;;;;4855624;29;20049;-63
2022/06/20 11:51:25;;;;;;;5.47;2.50;;;;;;;;;;4856020;29;20045;-63
2022/06/20 11:54:03;;;;;;;4.78;2.60;;;;;;;;;;5141294;27;20384;-64
2022/06/20 11:56:50;;;;;;;6.68;2.47;;;;;;;;;;5128510;28;20043;-64
2022/06/20 11:59:23;;;;;;;5.28;2.10;;;;;;;;;;5128419;28;20027;-64
2022/06/20 12:02:24;;;;;;;4.50;2.25;;;;;;;;;;5128753;28;20039;-63
2022/06/20 12:05:08;;;;;;;;;;;;;;;;;;5096429;28;20180;-62
2022/06/20 12:07:46;;;;;;;4.22;2.05;;;;;;;;;;5114990;28;19912;-63
2022/06/20 12:10:31;;;;;;;5.35;2.42;;;;;;;;;;5122262;28;20133;-63
2022/06/20 12:13:09;;;;;;;4.88;2.50;;;;;;;;;;5127518;28;20031;-63
2022/06/20 12:15:56;;;;;;;4.55;2.30;;;;;;;;;;5129244;28;20023;-63
2022/06/20 12:23:18;;;;;;;6.57;2.20;;;;;;;;;;5124473;28;20039;-62
2022/06/20 12:24:19;;;;;;;6.57;2.55;;;;;;;;;;5129230;28;20494;-62
2022/06/20 12:26:45;;;;;;;7.35;2.53;;;;;;;;;;5125159;28;20038;-62
2022/06/20 12:29:20;;;;;;;9.40;2.42;;;;;;;;;;5113794;28;20035;-63
2022/06/20 12:31:50;;;;;;;5.45;2.50;;;;;;;;;;5126495;28;20035;-63
2022/06/20 12:35:06;;;;;;;4.55;2.20;;;;;;;;;;5129500;28;20024;-63
2022/06/20 12:37:55;;;;;;;6.93;2.38;;;;;;;;;;5068471;28;20042;-64
2022/06/20 12:40:21;;;;;;;5.35;2.45;;;;;;;;;;5129170;28;20036;-63
2022/06/20 12:43:24;;;;;;;5.13;2.35;;;;;;;;;;5126251;28;20050;-64
2022/06/20 12:46:05;;;;;;;7.05;2.30;;;;;;;;;;5016864;28;20465;-64
2022/06/20 12:48:39;;;;;;;;;;;;;;;;;;5127117;28;20055;-62
2022/06/20 12:51:23;;;;;;;4.85;2.30;;;;;;;;;;5122021;28;19908;-64
2022/06/20 12:54:14;;;;;;;4.63;1.90;;;;;;;;;;5123825;28;20060;-62
2022/06/20 12:57:07;;;;;;;7.07;2.53;;;;;;;;;;5121642;28;20033;-61
2022/06/20 12:59:41;;;;;;;6.45;2.17;;;;;;;;;;5126147;28;20035;-62
2022/06/20 13:02:24;;;;;;;4.57;2.22;;;;;;;;;;5125768;28;20035;-63
2022/06/20 13:04:49;;;;;;;4.50;2.08;;;;;;;;;;5114977;28;20138;-62
2022/06/20 13:07:42;;;;;;;6.82;2.10;;;;;;;;;;5112651;28;20107;-62
2022/06/20 13:10:35;;;;;;;4.55;1.85;;;;;;;;;;5112399;28;20483;-62
2022/06/20 13:13:06;;;;;;;4.45;2.10;;;;;;;;;;5113684;28;20035;-62
2022/06/20 13:15:47;;;;;;;5.75;2.03;;;;;;;;;;5113790;28;20046;-63
2022/06/20 13:18:34;;;;;;;6.43;2.22;;;;;;;;;;5113142;28;20046;-61
2022/06/20 13:21:16;;;;;;;7.32;1.92;;;;;;;;;;5112626;28;20058;-63
2022/06/20 13:24:11;;;;;;;6.93;2.15;;;;;;;;;;5113987;28;20036;-61
2022/06/20 13:26:47;;;;;;;4.50;1.90;;;;;;;;;;5113101;28;20023;-57
2022/06/20 13:29:31;;;;;;;3.85;1.92;;;;;;;;;;5110602;28;20383;-57
2022/06/20 13:32:15;;;;;;;5.47;2.00;;;;;;;;;;5112074;28;20035;-59
2022/06/20 13:34:50;;;;;;;3.85;1.80;;;;;;;;;;5113637;28;20024;-60
2022/06/20 13:37:31;;;;;;;6.32;1.88;;;;;;;;;;5094104;28;20035;-56
2022/06/20 13:40:31;;;;;;;5.63;1.98;;;;;;;;;;5111156;28;20156;-58
2022/06/20 13:43:03;;;;;;;5.25;1.83;;;;;;;;;;5100901;28;20030;-58
2022/06/20 13:45:35;;;;;;;2.97;1.60;;;;;;;;;;5089151;28;20031;-59
2022/06/20 13:48:16;;;;;;;4.95;1.92;;;;;;;;;;5113141;28;20624;-58
2022/06/20 13:51:26;;;;;;;4.65;1.80;;;;;;;;;;5112071;28;20027;-58
2022/06/20 13:54:20;;;;;;;5.78;1.90;;;;;;;;;;5062431;28;20070;-59
2022/06/20 13:57:15;;;;;;;3.83;1.70;;;;;;;;;;5102058;28;20050;-58
2022/06/20 13:59:47;;;;;;;4.90;1.80;;;;;;;;;;5068760;28;20050;-59
2022/06/20 14:02:48;;;;;;;5.35;1.60;;;;;;;;;;5113439;28;20539;-58
2022/06/20 14:05:18;;;;;;;4.00;2.00;;;;;;;;;;5112433;28;20395;-55
2022/06/20 14:07:48;;;;;;;5.22;1.58;;;;;;;;;;5109011;28;20039;-57
2022/06/20 14:10:30;;;;;;;3.20;1.57;;;;;;;;;;5103540;28;20113;-54
2022/06/20 14:12:59;;;;;;;7.20;1.70;;;;;;;;;;5109128;28;20059;-53
2022/06/20 14:15:38;;;;;;;4.50;1.70;;;;;;;;;;5089728;28;20436;-53
2022/06/20 14:18:14;;;;;;;3.65;1.70;;;;;;;;;;5090044;28;20035;-58
2022/06/20 14:21:04;;;;;;;3.55;1.60;;;;;;;;;;5107846;28;20039;-59
2022/06/20 14:23:32;;;;;;;8.50;1.63;;;;;;;;;;5109417;28;20127;-57
2022/06/20 14:26:01;;;;;;;4.43;1.75;;;;;;;;;;5076420;28;20046;-54
2022/06/20 14:28:33;;;;;;;4.00;1.90;;;;;;;;;;5083890;28;20028;-57
2022/06/20 14:31:07;;;;;;;2.97;1.70;;;;;;;;;;5112237;28;20039;-60
2022/06/20 14:33:54;;;;;;;4.15;1.70;;;;;;;;;;5111000;28;20477;-60
2022/06/20 14:36:30;;;;;;;4.22;1.85;;;;;;;;;;5108710;28;20084;-53
2022/06/20 14:39:18;;;;;;;3.35;1.70;;;;;;;;;;5073292;28;20111;-54
2022/06/20 14:42:08;;;;;;;3.78;1.60;;;;;;;;;;5105733;28;20367;-56
2022/06/20 14:44:42;;;;;;;4.80;1.75;;;;;;;;;;5113799;28;20043;-58
2022/06/20 14:47:24;;;;;;;5.75;1.77;;;;;;;;;;5106200;28;20043;-57
2022/06/20 14:50:03;;;;;;;4.53;1.70;;;;;;;;;;5101872;28;20031;-52
2022/06/20 14:52:42;;;;;;;3.45;1.58;;;;;;;;;;5109317;28;20082;-56
2022/06/20 14:55:17;;;;;;;4.25;1.80;;;;;;;;;;5083911;28;20039;-56
2022/06/20 14:57:45;;;;;;;4.22;1.70;;;;;;;;;;5112541;28;20038;-59
2022/06/20 15:00:18;;;;;;;3.42;1.80;;;;;;;;;;5103426;28;20388;-58
2022/06/20 15:02:50;;;;;;;6.65;2.13;;;;;;;;;;5111433;28;20035;-59
2022/06/20 15:05:18;;;;;;;3.70;1.67;;;;;;;;;;5111911;28;20040;-56
2022/06/20 15:07:55;;;;;;;3.80;1.75;;;;;;;;;;5106297;28;20031;-57
2022/06/20 15:10:30;;;;;;;3.55;1.90;;;;;;;;;;5107176;28;20028;-54
2022/06/20 15:13:25;;;;;;;4.18;1.50;;;;;;;;;;5093146;28;20111;-57
2022/06/20 15:15:52;;;;;;;3.80;1.40;;;;;;;;;;5092395;28;20051;-57
2022/06/20 15:18:42;;;;;;;4.03;1.40;;;;;;;;;;5110072;28;20392;-57
2022/06/20 15:21:23;;;;;;;2.97;1.70;;;;;;;;;;5110936;28;20035;-57
2022/06/20 15:24:16;;;;;;;3.22;1.48;;;;;;;;;;5100611;28;20036;-57
2022/06/20 15:26:41;;;;;;;4.65;1.50;;;;;;;;;;5086952;28;20044;-57
2022/06/20 15:29:13;;;;;;;3.17;1.60;;;;;;;;;;5104651;28;20081;-55
2022/06/20 15:31:57;;;;;;;4.38;1.70;;;;;;;;;;5111411;28;20114;-57
2022/06/20 15:34:32;;;;;;;5.35;1.50;;;;;;;;;;5104868;28;20035;-57
2022/06/20 15:37:16;;;;;;;2.95;1.50;;;;;;;;;;5110974;28;20027;-55
2022/06/20 15:40:05;;;;;;;4.45;1.50;;;;;;;;;;5110632;28;20035;-56
2022/06/20 15:43:04;;;;;;;5.40;1.75;;;;;;;;;;5093472;28;20031;-58
2022/06/20 15:45:37;;;;;;;2.47;1.50;;;;;;;;;;5090287;28;20123;-56
2022/06/20 15:48:16;;;;;;;5.18;1.52;;;;;;;;;;5109767;28;20027;-57
2022/06/20 15:50:47;;;;;;;4.47;1.50;;;;;;;;;;5109518;28;20450;-56